Beulah, Colorado
Current Conditions -  °F | °C
As of 6:25 AM on Sunday 21 Dec 2014 (Local Time) from K1V6 Reporting Station
Clear Clear  
Wind Chill: 28°   Ceiling: Unl
Heat Index: 34°   Visibility: 10mi
Dew Point: 19°   Wind: 7mph
Humidity: 56%   Direction: 270°W
Pressure: 29.8"   Gusts: NA
Location:  38.08°N, 104.99°W
Report Text: K1V6 211325Z AUTO 27006KT 10SM CLR 01/M07 A2980 RMK AO2
Loading
Personal Weather Stations






























Interactive Weather Map New forecast layout! Learn more

10-Day Weather Forecast

Advertisements
Track Severe Weather on mobile